Weather Data

Pearl Creek Farm: 8878 N Farm Road 75, Walnut Grove MO 65770

<== Previous Day (Friday 01 Apr 2016) | Next Day (Sunday 03 Apr 2016) ==>

Summary Precipitation Data For Saturday 02 April 2016

ElementValueUnits
Precipitation0.01"
Notes(none)
SourcePearl Creek Farm

Summary Temperature Data For Saturday 02 April 2016

ElementValueUnits
High Temperature66 oF
Low Temperature33 oF
Average Temperature48 oF
High Humidity82 %
Low Humidity24 %
Average Humidity53 %
SourceSpringfield-Branson National Airport (SGF)

Detail Temperature Data For Saturday 02 April 2016

Date / TimeTemp (F)RH (%)Dew Pt (F)Report Date / TimeSource
2016-04-02 00:52:00 38 68 28.0 2017-12-29 17:00:26.17417 Springfield-Branson National Airport (SGF)
2016-04-02 01:52:00 36 76 29.0 2017-12-29 17:00:26.17417 Springfield-Branson National Airport (SGF)
2016-04-02 02:52:00 35 78 29.0 2017-12-29 17:00:26.17417 Springfield-Branson National Airport (SGF)
2016-04-02 03:52:00 34 79 28.0 2017-12-29 17:00:26.17417 Springfield-Branson National Airport (SGF)
2016-04-02 04:52:00 33 82 28.0 2017-12-29 17:00:26.17417 Springfield-Branson National Airport (SGF)
2016-04-02 06:52:00 35 76 28.0 2017-12-29 17:00:26.17417 Springfield-Branson National Airport (SGF)
2016-04-02 07:52:00 40 60 27.0 2017-12-29 17:00:26.17417 Springfield-Branson National Airport (SGF)
2016-04-02 08:52:00 45 48 26.0 2017-12-29 17:00:26.17417 Springfield-Branson National Airport (SGF)
2016-04-02 09:52:00 51 38 26.0 2017-12-29 17:00:26.17417 Springfield-Branson National Airport (SGF)
2016-04-02 10:52:00 55 35 28.0 2017-12-29 17:00:26.17417 Springfield-Branson National Airport (SGF)
2016-04-02 12:52:00 60 35 32.0 2017-12-29 17:00:26.17417 Springfield-Branson National Airport (SGF)
2016-04-02 13:52:00 62 34 33.0 2017-12-29 17:00:26.17417 Springfield-Branson National Airport (SGF)
2016-04-02 14:52:00 64 29 31.0 2017-12-29 17:00:26.17417 Springfield-Branson National Airport (SGF)
2016-04-02 15:52:00 66 25 29.0 2017-12-29 17:00:26.17417 Springfield-Branson National Airport (SGF)
2016-04-02 16:52:00 64 24 26.0 2017-12-29 17:00:26.17417 Springfield-Branson National Airport (SGF)
2016-04-02 17:52:00 60 31 29.0 2017-12-29 17:00:26.17417 Springfield-Branson National Airport (SGF)
2016-04-02 18:52:00 52 45 31.0 2017-12-29 17:00:26.17417 Springfield-Branson National Airport (SGF)
2016-04-02 19:52:00 52 41 29.0 2017-12-29 17:00:26.17417 Springfield-Branson National Airport (SGF)
2016-04-02 20:52:00 44 63 32.0 2017-12-29 17:00:26.17417 Springfield-Branson National Airport (SGF)
2016-04-02 21:52:00 49 48 30.0 2017-12-29 17:00:26.17417 Springfield-Branson National Airport (SGF)
2016-04-02 22:52:00 41 67 31.0 2017-12-29 17:00:26.17417 Springfield-Branson National Airport (SGF)
2016-04-02 23:52:00 39 73 31.0 2017-12-29 17:00:26.17417 Springfield-Branson National Airport (SGF)

A total of 22 rows are displayed.